Time;durP1;ratioP1;P1;durP2;ratioP2;P2;SDS_P1;SDS_P2;PMS_P1;PMS_P2;Temp;Humidity;BMP_temperature;BMP_pressure;BME280_temperature;BME280_humidity;BME280_pressure;Samples;Min_cycle;Max_cycle;Signal;HPM_P1;HPM_P2
2021/08/01 00:01:09;;;;;;;2.90;1.80;;;15.80;99.90;;;;;;4994341;28;20076;-90
2021/08/01 00:03:35;;;;;;;2.55;1.98;;;15.80;99.90;;;;;;5010652;28;20030;-88
2021/08/01 00:06:00;;;;;;;3.17;1.98;;;15.80;99.90;;;;;;4995074;28;20022;-88
2021/08/01 00:08:26;;;;;;;2.28;1.85;;;15.70;99.90;;;;;;4995100;28;20129;-89
2021/08/01 00:10:56;;;;;;;3.33;2.33;;;15.70;99.90;;;;;;4990917;28;20444;-87
2021/08/01 00:13:21;;;;;;;1.80;1.70;;;15.60;99.90;;;;;;4979040;28;20057;-89
2021/08/01 00:15:47;;;;;;;2.45;1.95;;;15.50;99.90;;;;;;4994794;28;20492;-89
2021/08/01 00:18:13;;;;;;;3.25;2.20;;;15.50;99.90;;;;;;4962111;28;20061;-89
2021/08/01 00:20:40;;;;;;;3.33;2.10;;;15.40;99.90;;;;;;4974544;28;20035;-87
2021/08/01 00:23:06;;;;;;;4.82;2.22;;;15.40;99.90;;;;;;4980046;28;20034;-89
2021/08/01 00:25:31;;;;;;;2.92;1.80;;;15.40;99.90;;;;;;4990554;28;20044;-88
2021/08/01 00:27:57;;;;;;;3.30;1.73;;;15.40;99.90;;;;;;4994940;28;20495;-89
2021/08/01 00:30:23;;;;;;;4.85;2.30;;;15.40;99.90;;;;;;4993819;28;20129;-89
2021/08/01 00:32:49;;;;;;;4.35;2.30;;;15.40;99.90;;;;;;4994536;28;20407;-88
2021/08/01 00:35:14;;;;;;;4.05;2.15;;;15.40;99.90;;;;;;4994603;28;20042;-89
2021/08/01 00:37:40;;;;;;;3.45;2.13;;;15.40;99.90;;;;;;4974641;28;20050;-89
2021/08/01 00:40:07;;;;;;;3.95;2.40;;;15.30;99.90;;;;;;4982234;28;20065;-88
2021/08/01 00:42:34;;;;;;;2.42;2.00;;;15.30;99.90;;;;;;4990866;28;20081;-89
2021/08/01 00:45:00;;;;;;;3.85;1.90;;;15.30;99.90;;;;;;4972009;28;20433;-89
2021/08/01 00:47:25;;;;;;;2.45;2.15;;;15.30;99.90;;;;;;4974916;28;20122;-89
2021/08/01 00:49:51;;;;;;;2.53;2.30;;;15.30;99.90;;;;;;4974546;28;20358;-87
2021/08/01 00:52:18;;;;;;;1.90;1.75;;;15.30;99.90;;;;;;4978063;28;20034;-88
2021/08/01 00:54:45;;;;;;;3.25;1.90;;;15.30;99.90;;;;;;4962400;28;20042;-89
2021/08/01 00:57:12;;;;;;;2.55;1.60;;;15.30;99.90;;;;;;4978168;28;20034;-88
2021/08/01 00:59:40;;;;;;;2.58;2.05;;;15.30;99.90;;;;;;4972488;28;20045;-89
2021/08/01 01:02:15;;;;;;;2.80;2.22;;;15.30;99.90;;;;;;4956569;28;20049;-88
2021/08/01 01:05:05;;;;;;;3.22;2.35;;;15.30;99.90;;;;;;4974757;28;20030;-89
2021/08/01 01:07:41;;;;;;;3.08;2.13;;;15.30;99.90;;;;;;4990925;28;20121;-89
2021/08/01 01:10:24;;;;;;;3.42;1.77;;;15.30;99.90;;;;;;4993889;28;20041;-88
2021/08/01 01:13:27;;;;;;;1.95;1.80;;;15.30;99.90;;;;;;4982202;28;20038;-89
2021/08/01 01:15:56;;;;;;;4.00;1.83;;;15.20;99.90;;;;;;5011697;28;20034;-88
2021/08/01 01:18:26;;;;;;;3.25;2.28;;;15.20;99.90;;;;;;4998250;28;21250;-89
2021/08/01 01:21:03;;;;;;;3.58;2.05;;;15.20;99.90;;;;;;4993699;28;20035;-89
2021/08/01 01:24:01;;;;;;;2.42;2.03;;;15.20;99.90;;;;;;4978637;28;20061;-89
2021/08/01 01:26:58;;;;;;;2.05;1.67;;;15.30;99.90;;;;;;4979576;28;20485;-89
2021/08/01 01:29:33;;;;;;;2.30;1.85;;;15.20;99.90;;;;;;4977992;28;20065;-88
2021/08/01 01:32:06;;;;;;;3.65;2.20;;;15.30;99.90;;;;;;5009608;28;20045;-88
2021/08/01 01:34:38;;;;;;;2.40;2.20;;;15.30;99.90;;;;;;4984368;28;20088;-89
2021/08/01 01:37:13;;;;;;;2.63;2.15;;;15.30;99.90;;;;;;4994861;28;20125;-89
2021/08/01 01:39:40;;;;;;;;;;;15.30;99.90;;;;;;4992788;28;20030;-88
2021/08/01 01:42:30;;;;;;;2.13;1.92;;;15.30;99.90;;;;;;4994211;28;20406;-88
2021/08/01 01:44:59;;;;;;;2.50;2.05;;;15.20;99.90;;;;;;4988243;28;20030;-88
2021/08/01 01:47:28;;;;;;;4.03;2.10;;;15.30;99.90;;;;;;4997955;28;20085;-88
2021/08/01 01:49:58;;;;;;;2.67;2.42;;;15.20;99.90;;;;;;4997057;28;20542;-88
2021/08/01 01:52:26;;;;;;;2.30;2.10;;;15.30;99.90;;;;;;4997087;28;20033;-88
2021/08/01 01:55:05;;;;;;;2.10;1.92;;;15.30;99.90;;;;;;4998772;28;20157;-88
2021/08/01 01:57:31;;;;;;;2.53;2.00;;;15.30;99.90;;;;;;4997375;28;20038;-88
2021/08/01 01:59:58;;;;;;;2.88;2.17;;;15.30;99.90;;;;;;5012977;28;20704;-88
2021/08/01 02:02:24;;;;;;;2.30;2.10;;;15.30;99.90;;;;;;4996762;28;20109;-89
2021/08/01 02:04:50;;;;;;;2.63;1.90;;;15.30;99.90;;;;;;4977611;28;20088;-88
2021/08/01 02:07:38;;;;;;;2.10;1.90;;;15.30;99.90;;;;;;4980374;28;20089;-88
2021/08/01 02:10:37;;;;;;;2.65;2.28;;;15.30;99.90;;;;;;4983495;28;20093;-88
2021/08/01 02:13:08;;;;;;;3.53;2.53;;;15.30;99.90;;;;;;4977973;28;20041;-88
2021/08/01 02:15:47;;;;;;;2.92;1.88;;;15.20;99.90;;;;;;4978360;28;20552;-89
2021/08/01 02:18:23;;;;;;;2.00;1.85;;;15.20;99.90;;;;;;4977507;28;20064;-88
2021/08/01 02:20:53;;;;;;;2.35;1.75;;;15.20;99.90;;;;;;4977148;28;20033;-89
2021/08/01 02:23:33;;;;;;;2.92;1.75;;;15.20;99.90;;;;;;4978794;28;20031;-90
2021/08/01 02:26:01;;;;;;;2.83;1.92;;;15.20;99.90;;;;;;4974230;28;20038;-89
2021/08/01 02:28:29;;;;;;;2.28;1.88;;;15.10;99.90;;;;;;4961552;28;20437;-89
2021/08/01 02:30:58;;;;;;;2.85;2.20;;;15.10;99.90;;;;;;4980733;28;20133;-89
2021/08/01 02:33:27;;;;;;;2.42;1.70;;;15.10;99.90;;;;;;4997063;28;20449;-89
2021/08/01 02:36:03;;;;;;;2.20;1.98;;;15.10;99.90;;;;;;4997168;28;20057;-89
2021/08/01 02:38:34;;;;;;;2.25;1.88;;;15.10;99.90;;;;;;5013351;28;20044;-89
2021/08/01 02:41:23;;;;;;;3.40;2.05;;;15.00;99.90;;;;;;4980419;28;20125;-90
2021/08/01 02:43:50;;;;;;;2.17;2.00;;;15.10;99.90;;;;;;4996887;28;20392;-89
2021/08/01 02:46:24;;;;;;;2.47;2.05;;;15.10;99.90;;;;;;4996567;28;20038;-89
2021/08/01 02:48:51;;;;;;;2.92;1.92;;;15.10;99.90;;;;;;4996342;28;20034;-90
2021/08/01 02:51:17;;;;;;;2.67;2.10;;;15.10;99.90;;;;;;4980480;28;20077;-89
2021/08/01 02:53:51;;;;;;;2.33;2.10;;;15.10;99.90;;;;;;4980220;28;20439;-88
2021/08/01 02:56:22;;;;;;;2.55;2.03;;;15.00;99.90;;;;;;4980846;28;20042;-89
2021/08/01 02:58:53;;;;;;;2.08;1.85;;;15.00;99.90;;;;;;4996217;28;20518;-88
2021/08/01 03:01:19;;;;;;;2.17;1.98;;;15.00;99.90;;;;;;4996022;28;20037;-88
2021/08/01 03:03:47;;;;;;;2.47;1.92;;;15.00;99.90;;;;;;4996289;28;20472;-89
2021/08/01 03:06:16;;;;;;;2.17;1.98;;;15.00;99.90;;;;;;4980004;28;20026;-89
2021/08/01 03:08:43;;;;;;;2.30;2.03;;;15.00;99.90;;;;;;4979797;28;20042;-88
2021/08/01 03:11:12;;;;;;;2.10;1.88;;;15.00;99.90;;;;;;4995831;28;20034;-89
2021/08/01 03:13:38;;;;;;;4.13;2.30;;;15.00;99.90;;;;;;4981753;28;20030;-89
2021/08/01 03:16:04;;;;;;;5.25;2.10;;;15.00;99.90;;;;;;4999319;28;20108;-89
2021/08/01 03:18:31;;;;;;;3.17;2.30;;;14.90;99.90;;;;;;4999103;28;20033;-90
2021/08/01 03:20:56;;;;;;;5.07;3.22;;;14.90;99.90;;;;;;4998645;28;20109;-89
2021/08/01 03:23:22;;;;;;;3.65;2.00;;;14.90;99.90;;;;;;5015800;28;20033;-88
2021/08/01 03:26:51;;;;;;;2.40;2.20;;;14.70;99.90;;;;;;5011341;28;20092;-89
2021/08/01 03:29:22;;;;;;;2.97;2.60;;;14.70;99.90;;;;;;5011795;28;20397;-88
2021/08/01 03:31:49;;;;;;;2.97;2.53;;;14.70;99.90;;;;;;4975749;28;20034;-88
2021/08/01 03:34:15;;;;;;;3.90;2.50;;;14.80;99.90;;;;;;4960048;28;20457;-88
2021/08/01 03:36:41;;;;;;;4.28;2.75;;;14.90;99.90;;;;;;4975246;28;20038;-87
2021/08/01 03:39:09;;;;;;;5.55;2.67;;;14.80;99.90;;;;;;4991954;28;20035;-88
2021/08/01 03:41:46;;;;;;;3.15;2.55;;;14.80;99.90;;;;;;4962393;28;20034;-87
2021/08/01 03:44:32;;;;;;;;;;;14.80;99.90;;;;;;4965804;28;20043;-88
2021/08/01 03:46:58;;;;;;;3.78;2.70;;;14.80;99.90;;;;;;4992281;28;20392;-88
2021/08/01 03:49:24;;;;;;;5.32;2.83;;;14.80;99.90;;;;;;4959509;28;20133;-88
2021/08/01 03:51:50;;;;;;;3.45;2.95;;;14.90;99.90;;;;;;4961423;28;20125;-89
2021/08/01 03:54:15;;;;;;;4.68;3.05;;;14.90;99.90;;;;;;4971931;28;20029;-86
2021/08/01 03:56:44;;;;;;;5.15;2.90;;;14.90;99.90;;;;;;4994910;28;20026;-86
2021/08/01 03:59:11;;;;;;;3.25;2.65;;;14.90;99.90;;;;;;5011068;28;20037;-86
2021/08/01 04:01:37;;;;;;;3.17;2.72;;;14.80;99.90;;;;;;5011160;28;20026;-87
2021/08/01 04:04:04;;;;;;;3.30;3.00;;;14.80;99.90;;;;;;4978729;28;20034;-87
2021/08/01 04:06:30;;;;;;;3.30;2.65;;;14.80;99.90;;;;;;4994889;28;20038;-86
2021/08/01 04:08:56;;;;;;;4.65;2.97;;;14.80;99.90;;;;;;4994578;28;20125;-86
2021/08/01 04:11:22;;;;;;;3.10;2.80;;;14.80;99.90;;;;;;4994695;28;20492;-87
2021/08/01 04:13:48;;;;;;;3.50;3.20;;;14.80;99.90;;;;;;4994701;28;20072;-85
2021/08/01 04:16:15;;;;;;;2.88;2.67;;;14.80;99.90;;;;;;4994820;28;20064;-86
2021/08/01 04:18:41;;;;;;;3.00;2.70;;;14.80;99.90;;;;;;4978639;28;20042;-86
2021/08/01 04:21:12;;;;;;;4.43;2.90;;;14.80;99.90;;;;;;4978150;28;20030;-86
2021/08/01 04:23:38;;;;;;;2.53;2.30;;;14.80;99.90;;;;;;4994918;28;20061;-86
2021/08/01 04:26:07;;;;;;;4.78;2.90;;;14.80;99.90;;;;;;4993771;28;20129;-86
2021/08/01 04:28:34;;;;;;;2.80;2.42;;;14.70;99.90;;;;;;4995121;28;20133;-86
2021/08/01 04:30:59;;;;;;;3.97;3.10;;;14.70;99.90;;;;;;4994131;28;20104;-86
2021/08/01 04:33:26;;;;;;;4.13;2.97;;;14.70;99.90;;;;;;4978537;28;20431;-86
2021/08/01 04:35:52;;;;;;;3.72;2.53;;;14.70;99.90;;;;;;4994736;28;20069;-86
2021/08/01 04:38:18;;;;;;;6.90;3.40;;;14.60;99.90;;;;;;4994263;28;20037;-86
2021/08/01 04:40:43;;;;;;;3.00;2.72;;;14.60;99.90;;;;;;4993427;28;20022;-86
2021/08/01 04:43:09;;;;;;;4.28;2.55;;;14.50;99.90;;;;;;4994567;28;20484;-86
2021/08/01 04:45:35;;;;;;;3.10;2.60;;;14.50;99.90;;;;;;4978014;28;20026;-86
2021/08/01 04:48:01;;;;;;;3.05;2.67;;;14.50;99.90;;;;;;4978089;28;20034;-87
2021/08/01 04:50:26;;;;;;;3.65;3.13;;;14.40;99.90;;;;;;4993762;28;20033;-87
2021/08/01 04:52:52;;;;;;;5.32;3.22;;;14.40;99.90;;;;;;4978476;28;20033;-87
2021/08/01 04:55:21;;;;;;;4.35;2.95;;;14.30;99.90;;;;;;4993738;28;20436;-86
2021/08/01 04:57:47;;;;;;;4.25;3.63;;;14.30;99.90;;;;;;4978725;28;20030;-86
2021/08/01 05:00:15;;;;;;;5.68;3.45;;;14.30;99.90;;;;;;4994860;28;20120;-87
2021/08/01 05:02:43;;;;;;;4.18;3.30;;;14.20;99.90;;;;;;4994519;28;20034;-86
2021/08/01 05:05:09;;;;;;;4.55;3.88;;;14.20;99.90;;;;;;4978954;28;20038;-87
2021/08/01 05:07:35;;;;;;;4.95;3.33;;;14.20;99.90;;;;;;4977894;28;20038;-86
2021/08/01 05:10:01;;;;;;;3.72;3.17;;;14.20;99.90;;;;;;4993653;28;20038;-87
2021/08/01 05:12:27;;;;;;;4.45;3.53;;;14.10;99.90;;;;;;4994204;28;20030;-87
2021/08/01 05:14:55;;;;;;;5.10;3.30;;;14.20;99.90;;;;;;4978410;28;20058;-86
2021/08/01 05:17:21;;;;;;;3.92;3.53;;;14.10;99.90;;;;;;4994646;28;20076;-86
2021/08/01 05:19:47;;;;;;;6.18;3.60;;;14.10;99.90;;;;;;4993840;28;20037;-87
2021/08/01 05:22:13;;;;;;;5.65;3.53;;;14.10;99.90;;;;;;4990656;28;20034;-86
2021/08/01 05:24:40;;;;;;;4.25;3.45;;;14.10;99.90;;;;;;4980256;28;20099;-86
2021/08/01 05:27:07;;;;;;;5.35;3.47;;;14.20;99.90;;;;;;4977708;28;20046;-87
2021/08/01 05:29:33;;;;;;;6.90;3.85;;;14.20;99.90;;;;;;4993009;28;20083;-87
2021/08/01 05:31:59;;;;;;;5.07;3.58;;;14.20;99.90;;;;;;4987635;28;20053;-86
2021/08/01 05:34:25;;;;;;;4.63;3.75;;;14.20;99.90;;;;;;4987886;28;20042;-86
2021/08/01 05:36:50;;;;;;;4.20;3.65;;;14.20;99.90;;;;;;4956794;28;20158;-87
2021/08/01 05:39:16;;;;;;;4.55;3.60;;;14.20;99.90;;;;;;4989750;28;20084;-86
2021/08/01 05:41:42;;;;;;;6.78;3.97;;;14.20;99.90;;;;;;4976334;28;20052;-88
2021/08/01 05:44:08;;;;;;;5.00;3.90;;;14.20;99.90;;;;;;4993847;28;20583;-87
2021/08/01 05:46:33;;;;;;;4.80;3.95;;;14.30;99.90;;;;;;4993301;28;20064;-88
2021/08/01 05:48:59;;;;;;;4.50;4.10;;;14.30;99.90;;;;;;4993063;28;20128;-87
2021/08/01 05:51:25;;;;;;;6.07;3.80;;;14.30;99.90;;;;;;4992963;28;20048;-88
2021/08/01 05:53:51;;;;;;;4.25;3.67;;;14.30;99.90;;;;;;4977418;28;20038;-88
2021/08/01 05:56:16;;;;;;;4.40;3.55;;;14.30;99.90;;;;;;5009806;28;20061;-87
2021/08/01 05:58:42;;;;;;;5.03;3.75;;;14.30;99.90;;;;;;4993523;28;20030;-88
2021/08/01 06:01:13;;;;;;;4.80;3.63;;;14.40;99.90;;;;;;4994810;28;20026;-88
2021/08/01 06:03:40;;;;;;;5.25;3.67;;;14.40;99.90;;;;;;4997019;28;20026;-87
2021/08/01 06:06:22;;;;;;;5.15;4.07;;;14.40;99.90;;;;;;5012934;28;20065;-88
2021/08/01 06:08:51;;;;;;;4.72;3.45;;;14.40;99.90;;;;;;4997231;28;20128;-88
2021/08/01 06:11:17;;;;;;;5.95;4.43;;;14.40;99.90;;;;;;5012600;28;20049;-86
2021/08/01 06:13:43;;;;;;;4.25;3.50;;;14.40;99.90;;;;;;4980437;28;20049;-86
2021/08/01 06:16:10;;;;;;;4.93;3.30;;;14.40;99.90;;;;;;4981875;28;20041;-88
2021/08/01 06:18:37;;;;;;;5.47;3.78;;;14.40;99.90;;;;;;4996231;28;20063;-87
2021/08/01 06:21:04;;;;;;;6.13;3.75;;;14.40;99.90;;;;;;4995922;28;20022;-88
2021/08/01 06:23:30;;;;;;;5.80;3.60;;;14.40;99.90;;;;;;5012736;28;20062;-88
2021/08/01 06:25:55;;;;;;;4.57;3.85;;;14.40;99.90;;;;;;4996371;28;20053;-86
2021/08/01 06:28:21;;;;;;;4.85;4.15;;;14.40;99.90;;;;;;4980490;28;20111;-88
2021/08/01 06:30:47;;;;;;;5.10;4.38;;;14.40;99.90;;;;;;4992855;28;20041;-88
2021/08/01 06:33:12;;;;;;;7.35;4.10;;;14.40;99.90;;;;;;4960911;28;20108;-87
2021/08/01 06:35:38;;;;;;;9.18;4.00;;;14.40;99.90;;;;;;4976582;28;20077;-87
2021/08/01 06:38:04;;;;;;;4.95;3.72;;;14.50;99.90;;;;;;4976678;28;20129;-87
2021/08/01 06:40:29;;;;;;;3.97;3.58;;;14.50;99.90;;;;;;4975799;28;20030;-88
2021/08/01 06:42:55;;;;;;;8.20;4.20;;;14.50;99.90;;;;;;4976562;28;20081;-89
2021/08/01 06:45:21;;;;;;;4.47;3.75;;;14.60;99.90;;;;;;4978634;28;20471;-88
2021/08/01 06:47:47;;;;;;;5.07;3.70;;;14.60;99.90;;;;;;4996024;28;20034;-88
2021/08/01 06:50:12;;;;;;;4.63;4.00;;;14.60;99.90;;;;;;4995726;28;20049;-87
2021/08/01 06:52:38;;;;;;;6.28;4.15;;;14.60;99.90;;;;;;4995943;28;20066;-87
2021/08/01 06:55:04;;;;;;;4.72;3.70;;;14.60;99.90;;;;;;4995777;28;20042;-88
2021/08/01 06:57:30;;;;;;;5.13;4.55;;;14.60;99.90;;;;;;4979840;28;20547;-87
2021/08/01 06:59:56;;;;;;;5.30;3.75;;;14.60;99.90;;;;;;4979205;28;20062;-86
2021/08/01 07:02:21;;;;;;;4.40;4.00;;;14.70;99.90;;;;;;4995460;28;20036;-87
2021/08/01 07:04:47;;;;;;;4.15;3.13;;;14.60;99.90;;;;;;4995815;28;20030;-88
2021/08/01 07:07:13;;;;;;;6.90;3.88;;;14.60;99.90;;;;;;4995452;28;20034;-87
2021/08/01 07:09:40;;;;;;;5.20;3.88;;;14.60;99.90;;;;;;4994866;28;20028;-86
2021/08/01 07:12:07;;;;;;;6.38;3.47;;;14.70;99.90;;;;;;4960490;28;20044;-89
2021/08/01 07:14:34;;;;;;;7.43;3.97;;;14.70;99.90;;;;;;4995317;28;20030;-86
2021/08/01 07:17:01;;;;;;;5.60;3.90;;;14.70;99.90;;;;;;4995342;28;20448;-87
2021/08/01 07:19:27;;;;;;;8.18;4.20;;;14.70;99.90;;;;;;4995155;28;20033;-87
2021/08/01 07:21:53;;;;;;;6.95;3.90;;;14.70;99.90;;;;;;4962663;28;20120;-87
2021/08/01 07:24:19;;;;;;;5.30;3.90;;;14.60;99.90;;;;;;4995287;28;20125;-86
2021/08/01 07:26:45;;;;;;;4.40;4.00;;;14.60;99.90;;;;;;4979189;28;20022;-86
2021/08/01 07:29:11;;;;;;;10.07;4.43;;;14.60;99.90;;;;;;4994606;28;20064;-86
2021/08/01 07:31:36;;;;;;;6.63;3.78;;;14.60;99.90;;;;;;4994535;28;20046;-86
2021/08/01 07:34:02;;;;;;;5.03;4.05;;;14.70;99.90;;;;;;4992159;28;20038;-86
2021/08/01 07:36:28;;;;;;;4.30;3.55;;;14.70;99.90;;;;;;4983435;28;20559;-88
2021/08/01 07:38:54;;;;;;;5.68;4.07;;;14.70;99.90;;;;;;4994730;28;20604;-86
2021/08/01 07:41:20;;;;;;;5.57;3.97;;;14.80;99.90;;;;;;5009700;28;20393;-86
2021/08/01 07:43:46;;;;;;;5.07;4.07;;;14.80;99.90;;;;;;4991756;28;20034;-87
2021/08/01 07:46:12;;;;;;;5.75;4.35;;;14.80;99.90;;;;;;4961761;28;20493;-87
2021/08/01 07:48:38;;;;;;;7.20;4.18;;;14.90;99.90;;;;;;4995140;28;20598;-87
2021/08/01 07:51:03;;;;;;;6.13;4.18;;;15.00;99.90;;;;;;4993930;28;20033;-88
2021/08/01 07:53:29;;;;;;;6.18;4.07;;;15.00;99.90;;;;;;4978479;28;20038;-88
2021/08/01 07:55:55;;;;;;;6.03;4.10;;;15.00;99.90;;;;;;4994611;28;20040;-87
2021/08/01 07:58:21;;;;;;;6.53;4.60;;;15.10;99.90;;;;;;4978488;28;20121;-88
2021/08/01 08:00:47;;;;;;;6.88;4.43;;;15.10;99.90;;;;;;4974086;28;20401;-87
2021/08/01 08:03:12;;;;;;;6.45;4.07;;;15.20;99.90;;;;;;4980235;28;20378;-87
2021/08/01 08:05:38;;;;;;;5.72;4.05;;;15.30;99.90;;;;;;4994185;28;20041;-87
2021/08/01 08:08:04;;;;;;;6.32;4.60;;;15.40;99.90;;;;;;4978339;28;20045;-87
2021/08/01 08:10:30;;;;;;;6.03;4.15;;;15.40;99.90;;;;;;5009731;28;20029;-86
2021/08/01 08:12:55;;;;;;;7.18;4.80;;;15.50;99.90;;;;;;4994391;28;20034;-87
2021/08/01 08:15:21;;;;;;;5.72;4.28;;;15.50;99.90;;;;;;4994028;28;20034;-85
2021/08/01 08:17:47;;;;;;;4.97;4.47;;;15.60;99.90;;;;;;4993168;28;20040;-85
2021/08/01 08:20:13;;;;;;;6.82;5.15;;;15.60;99.90;;;;;;4977002;28;20034;-85
2021/08/01 08:22:38;;;;;;;7.22;5.15;;;15.70;99.90;;;;;;4993258;28;20069;-86
2021/08/01 08:25:05;;;;;;;6.50;5.13;;;15.80;99.90;;;;;;4975329;28;20136;-86
2021/08/01 08:27:31;;;;;;;5.88;5.13;;;15.80;99.90;;;;;;4994665;28;20034;-86
2021/08/01 08:29:57;;;;;;;5.07;4.55;;;15.90;99.90;;;;;;4993542;28;20047;-86
2021/08/01 08:32:23;;;;;;;5.95;4.82;;;16.00;99.90;;;;;;4978000;28;20038;-85
2021/08/01 08:34:48;;;;;;;5.30;4.80;;;16.10;99.90;;;;;;4977819;28;20041;-87
2021/08/01 08:37:14;;;;;;;7.50;5.30;;;16.20;99.90;;;;;;4986623;28;20030;-87
2021/08/01 08:39:40;;;;;;;6.82;5.25;;;16.30;99.90;;;;;;4958512;28;20026;-86
2021/08/01 08:42:06;;;;;;;6.68;5.32;;;16.40;99.90;;;;;;4958217;28;20058;-86
2021/08/01 08:44:34;;;;;;;7.30;5.00;;;16.40;99.90;;;;;;4990485;28;20118;-86
2021/08/01 08:47:00;;;;;;;7.95;5.50;;;16.50;99.90;;;;;;4990719;28;20027;-87
2021/08/01 08:49:29;;;;;;;6.20;4.70;;;16.60;99.90;;;;;;4982176;28;20034;-87
2021/08/01 08:51:57;;;;;;;5.82;4.45;;;16.70;99.90;;;;;;4988424;28;20033;-87
2021/08/01 08:54:39;;;;;;;6.93;5.55;;;16.80;99.90;;;;;;4973304;28;20073;-87
2021/08/01 08:57:20;;;;;;;6.68;4.72;;;16.90;99.90;;;;;;5006483;28;20026;-86
2021/08/01 08:59:47;;;;;;;5.88;4.70;;;17.10;99.90;;;;;;4973727;28;20034;-86
2021/08/01 09:02:14;;;;;;;6.40;4.30;;;17.30;99.90;;;;;;4988748;28;20026;-86
2021/08/01 09:04:42;;;;;;;6.22;4.53;;;17.60;99.90;;;;;;4994257;28;20631;-87
2021/08/01 09:07:08;;;;;;;5.90;4.20;;;17.80;99.90;;;;;;5009771;28;20088;-88
2021/08/01 09:09:33;;;;;;;4.05;3.65;;;17.90;99.90;;;;;;4992713;28;20026;-87
2021/08/01 09:11:59;;;;;;;5.80;3.17;;;17.90;99.90;;;;;;4993101;28;20410;-87
2021/08/01 09:14:25;;;;;;;6.82;3.90;;;17.90;99.90;;;;;;4993307;28;20030;-87
2021/08/01 09:16:51;;;;;;;5.30;3.90;;;17.90;99.90;;;;;;4984172;28;20030;-87
2021/08/01 09:19:32;;;;;;;3.95;3.55;;;17.90;99.90;;;;;;4990887;28;20088;-87
2021/08/01 09:22:21;;;;;;;3.65;3.25;;;17.90;99.90;;;;;;4978216;28;20168;-86
2021/08/01 09:24:52;;;;;;;4.03;3.58;;;17.80;99.90;;;;;;4991640;28;20415;-88
2021/08/01 09:27:32;;;;;;;5.15;4.05;;;17.70;99.90;;;;;;4975406;28;20058;-88
2021/08/01 09:29:59;;;;;;;4.40;3.50;;;17.80;99.90;;;;;;4973026;28;20496;-87
2021/08/01 09:32:26;;;;;;;4.35;3.90;;;17.70;99.90;;;;;;4978752;28;20079;-88
2021/08/01 09:34:52;;;;;;;4.78;4.28;;;17.60;99.90;;;;;;4979053;28;20053;-86
2021/08/01 09:37:31;;;;;;;5.40;4.28;;;17.60;99.90;;;;;;4997060;28;20209;-86
2021/08/01 09:40:11;;;;;;;5.45;3.67;;;17.50;99.90;;;;;;4996852;28;20068;-88
2021/08/01 09:42:45;;;;;;;5.07;4.18;;;17.50;99.90;;;;;;4996290;28;20037;-87
2021/08/01 09:45:16;;;;;;;5.20;4.30;;;17.60;99.90;;;;;;4997688;28;20061;-88
2021/08/01 09:47:43;;;;;;;5.38;3.83;;;17.80;99.90;;;;;;5010774;28;20033;-88
2021/08/01 09:50:09;;;;;;;6.10;3.35;;;18.10;99.90;;;;;;4996767;28;20054;-87
2021/08/01 09:52:35;;;;;;;6.97;4.20;;;18.20;99.90;;;;;;4992361;28;20120;-88
2021/08/01 09:55:02;;;;;;;4.82;4.32;;;18.20;99.90;;;;;;4995072;28;20569;-88
2021/08/01 09:57:28;;;;;;;4.35;3.50;;;18.20;99.90;;;;;;5014410;28;20030;-88
2021/08/01 10:00:08;;;;;;;3.70;3.40;;;18.20;99.90;;;;;;4998507;28;20034;-88
2021/08/01 10:02:40;;;;;;;3.88;3.47;;;18.40;99.90;;;;;;4993375;28;20079;-87
2021/08/01 10:05:27;;;;;;;5.50;4.30;;;18.60;99.90;;;;;;5013721;28;20411;-87
2021/08/01 10:07:53;;;;;;;4.93;3.28;;;18.90;99.90;;;;;;4983461;28;20037;-87
2021/08/01 10:10:25;;;;;;;3.80;3.50;;;19.10;99.90;;;;;;4980195;28;20141;-88
2021/08/01 10:12:53;;;;;;;4.00;3.30;;;19.10;99.90;;;;;;4996575;28;20033;-87
2021/08/01 10:15:20;;;;;;;3.60;3.30;;;19.20;99.90;;;;;;4994109;28;20121;-87
2021/08/01 10:17:46;;;;;;;4.63;3.60;;;19.30;99.90;;;;;;4997072;28;20079;-86
2021/08/01 10:20:13;;;;;;;4.32;3.53;;;19.20;99.90;;;;;;4997068;28;20117;-87
2021/08/01 10:22:41;;;;;;;4.93;3.67;;;19.30;99.90;;;;;;5013880;28;20092;-86
2021/08/01 10:25:15;;;;;;;4.43;3.95;;;19.10;99.90;;;;;;4997380;28;20128;-86
2021/08/01 10:27:50;;;;;;;3.47;3.20;;;19.20;99.90;;;;;;5013979;28;20038;-87
2021/08/01 10:30:21;;;;;;;3.92;3.58;;;19.30;99.90;;;;;;4996953;28;20099;-87
2021/08/01 10:32:53;;;;;;;3.85;3.30;;;19.40;99.90;;;;;;4997308;28;20046;-87
2021/08/01 10:35:21;;;;;;;5.93;3.58;;;19.60;99.90;;;;;;4997977;28;20503;-88
2021/08/01 10:38:01;;;;;;;4.05;3.10;;;19.70;99.90;;;;;;5011165;28;20038;-87
2021/08/01 10:40:33;;;;;;;5.07;3.67;;;19.90;99.90;;;;;;4991398;28;20083;-87
2021/08/01 10:43:15;;;;;;;3.63;3.03;;;20.00;99.90;;;;;;4995993;28;20048;-86
2021/08/01 10:45:45;;;;;;;4.03;3.63;;;19.70;99.90;;;;;;4998547;28;20026;-85
2021/08/01 10:48:13;;;;;;;3.60;3.30;;;19.70;99.90;;;;;;4998991;28;20033;-87
2021/08/01 10:50:41;;;;;;;5.22;2.92;;;19.60;99.90;;;;;;4983283;28;20412;-86
2021/08/01 10:53:19;;;;;;;3.53;2.83;;;19.50;99.90;;;;;;5002217;28;20038;-87
2021/08/01 10:55:45;;;;;;;5.50;4.10;;;19.40;99.90;;;;;;4999654;28;20046;-86
2021/08/01 10:58:13;;;;;;;4.55;3.15;;;19.30;99.90;;;;;;4994285;28;20093;-87
2021/08/01 11:01:01;;;;;;;3.60;3.08;;;19.20;99.90;;;;;;5012566;28;20026;-86
2021/08/01 11:03:29;;;;;;;3.45;2.90;;;19.20;99.90;;;;;;4996411;28;20061;-86
2021/08/01 11:05:55;;;;;;;3.72;2.90;;;19.30;99.90;;;;;;4996621;28;20041;-86
2021/08/01 11:08:21;;;;;;;3.85;2.78;;;19.30;99.90;;;;;;5011187;28;20030;-85
2021/08/01 11:10:47;;;;;;;2.67;2.47;;;19.20;99.90;;;;;;4992090;28;20130;-86
2021/08/01 11:13:31;;;;;;;3.08;2.55;;;19.10;99.90;;;;;;4993932;28;20081;-87
2021/08/01 11:15:57;;;;;;;3.65;2.72;;;19.10;99.90;;;;;;5008658;28;20037;-86
2021/08/01 11:18:32;;;;;;;3.15;2.85;;;19.20;99.90;;;;;;5007013;28;20028;-85
2021/08/01 11:21:03;;;;;;;2.95;2.28;;;19.40;99.90;;;;;;4970218;28;20042;-86
2021/08/01 11:23:46;;;;;;;3.75;2.97;;;19.40;99.90;;;;;;5001479;28;20535;-85
2021/08/01 11:26:13;;;;;;;2.60;2.40;;;19.50;99.90;;;;;;4990715;28;20049;-87
2021/08/01 11:28:43;;;;;;;2.20;2.00;;;19.40;99.90;;;;;;4975224;28;20037;-85
2021/08/01 11:31:18;;;;;;;3.05;2.72;;;19.60;99.90;;;;;;4968049;28;20092;-86
2021/08/01 11:33:46;;;;;;;2.58;2.33;;;19.70;99.90;;;;;;4984235;28;20105;-85
2021/08/01 11:36:18;;;;;;;2.20;2.03;;;19.80;99.90;;;;;;4998432;28;20033;-87
2021/08/01 11:38:59;;;;;;;2.90;2.25;;;20.00;99.90;;;;;;4984758;28;20080;-85
2021/08/01 11:41:49;;;;;;;3.25;1.67;;;20.20;99.90;;;;;;5000947;28;20035;-86
2021/08/01 11:44:23;;;;;;;1.98;1.77;;;20.20;99.90;;;;;;4987463;28;20129;-84
2021/08/01 11:47:10;;;;;;;2.17;2.05;;;20.40;99.90;;;;;;4996804;28;20030;-86
2021/08/01 11:49:47;;;;;;;1.70;1.58;;;20.50;99.90;;;;;;5003918;28;20065;-86
2021/08/01 11:52:33;;;;;;;1.77;1.60;;;20.60;99.90;;;;;;4990740;28;20026;-85
2021/08/01 11:55:00;;;;;;;1.60;1.42;;;20.60;99.90;;;;;;4988049;28;20072;-85
2021/08/01 11:57:30;;;;;;;1.50;1.40;;;20.60;99.90;;;;;;4987877;28;20079;-83
2021/08/01 11:59:56;;;;;;;3.13;1.52;;;20.70;99.90;;;;;;4984025;28;20031;-85
2021/08/01 12:02:23;;;;;;;1.58;1.48;;;20.70;99.90;;;;;;4992346;28;20462;-85
2021/08/01 12:04:57;;;;;;;2.40;1.45;;;20.60;99.90;;;;;;4987577;28;20038;-86
2021/08/01 12:07:37;;;;;;;2.38;1.95;;;20.60;99.90;;;;;;5001928;28;20041;-84
2021/08/01 12:10:17;;;;;;;1.50;1.40;;;20.70;99.90;;;;;;4998707;28;20642;-84
2021/08/01 12:12:43;;;;;;;2.10;1.80;;;20.80;99.90;;;;;;4988440;28;20083;-84
2021/08/01 12:15:09;;;;;;;1.48;1.38;;;20.70;99.90;;;;;;4971650;28;20038;-85
2021/08/01 12:17:36;;;;;;;4.00;1.45;;;20.80;99.90;;;;;;4978229;28;20038;-85
2021/08/01 12:20:02;;;;;;;1.85;1.40;;;20.80;99.90;;;;;;5003629;28;20029;-84
2021/08/01 12:22:27;;;;;;;1.75;1.45;;;20.90;99.90;;;;;;4985422;28;20038;-85
2021/08/01 12:24:59;;;;;;;1.50;1.40;;;20.80;99.90;;;;;;4955146;28;20034;-84
2021/08/01 12:27:34;;;;;;;1.40;1.30;;;20.80;99.90;;;;;;4987386;28;20037;-85
2021/08/01 12:30:03;;;;;;;1.67;1.33;;;20.70;99.90;;;;;;4973072;28;20766;-84
2021/08/01 12:32:46;;;;;;;1.67;1.58;;;20.60;99.90;;;;;;5006087;28;20029;-84
2021/08/01 12:35:38;;;;;;;1.35;1.25;;;20.60;99.90;;;;;;4957076;28;20045;-84
2021/08/01 12:38:08;;;;;;;3.42;1.55;;;20.60;99.90;;;;;;4988168;28;20034;-85
2021/08/01 12:40:43;;;;;;;1.67;1.55;;;20.70;99.90;;;;;;4997290;28;20030;-85
2021/08/01 12:43:15;;;;;;;2.13;1.23;;;20.70;99.90;;;;;;4985578;28;20038;-86
2021/08/01 12:45:45;;;;;;;5.75;1.98;;;20.70;99.90;;;;;;4968205;28;20652;-85
2021/08/01 12:48:14;;;;;;;2.13;1.50;;;20.90;99.90;;;;;;4969177;28;20390;-86
2021/08/01 12:50:44;;;;;;;1.52;1.40;;;20.90;99.90;;;;;;4978744;28;20082;-86
2021/08/01 12:53:38;;;;;;;2.10;1.55;;;20.90;99.90;;;;;;5023853;28;20030;-84
2021/08/01 12:56:27;;;;;;;1.52;1.20;;;20.90;99.90;;;;;;5035106;28;20101;-85
2021/08/01 12:59:09;;;;;;;1.58;1.48;;;21.20;99.90;;;;;;4991389;28;20069;-85
2021/08/01 13:01:43;;;;;;;1.70;1.00;;;21.50;99.90;;;;;;4994635;28;20045;-85